createdAt,value
2017-10-13T14:39:42.304Z,39.87
2017-10-13T14:40:42.335Z,39.68
2017-10-13T14:41:42.370Z,38.82
2017-10-13T14:42:42.398Z,38.5
2017-10-13T14:43:42.619Z,38.27
2017-10-13T14:44:42.469Z,37.25
2017-10-13T14:45:42.498Z,36.65
2017-10-13T14:46:42.542Z,36.59
2017-10-13T14:47:42.578Z,36.84
2017-10-13T14:48:44.458Z,36.91
2017-10-13T14:49:45.734Z,36.72
2017-10-13T14:50:44.963Z,36.24
2017-10-13T14:51:44.642Z,35.58
2017-10-13T14:52:44.862Z,34.5
2017-10-13T14:53:42.778Z,34.13
2017-10-13T14:54:42.811Z,33.65
2017-10-13T14:55:43.170Z,33.45
2017-10-13T14:56:43.212Z,33.12
2017-10-13T14:57:42.913Z,32.75
2017-10-13T14:58:42.948Z,32.38
2017-10-13T14:59:42.980Z,31.9
2017-10-13T15:00:43.011Z,31.55
2017-10-13T15:01:43.050Z,31.39
2017-10-13T15:02:43.124Z,31.03
2017-10-13T15:03:43.128Z,30.57
2017-10-13T15:04:43.146Z,30.12
2017-10-13T15:05:43.519Z,29.87
2017-10-13T15:06:43.214Z,29.41
2017-10-13T15:07:43.245Z,29.31
2017-10-13T15:08:43.269Z,29.17
2017-10-13T15:09:43.299Z,28.76
2017-10-13T15:10:43.336Z,28.35
2017-10-13T15:11:43.369Z,28.27
2017-10-13T15:12:43.396Z,28.26
2017-10-13T15:13:43.424Z,28.12
2017-10-13T15:14:43.457Z,28.02
2017-10-13T15:15:43.482Z,27.74
2017-10-13T15:16:43.520Z,27.45
2017-10-13T15:17:43.540Z,27.3
2017-10-13T15:18:43.573Z,27.22
2017-10-13T15:19:43.599Z,27.22
2017-10-13T15:20:43.637Z,26.9
2017-10-13T15:21:43.660Z,26.92
2017-10-13T15:22:43.690Z,26.85
2017-10-13T15:23:44.175Z,26.66
2017-10-13T15:24:43.750Z,26.65
2017-10-13T15:25:43.782Z,26.43
2017-10-13T15:26:43.805Z,26.33
2017-10-13T15:27:43.841Z,26.34
2017-10-13T15:28:43.861Z,26.16
2017-10-13T15:29:44.212Z,26.13
2017-10-13T15:30:43.921Z,25.99
2017-10-13T15:31:43.947Z,25.95
2017-10-13T15:32:43.975Z,25.95
2017-10-13T15:33:44.007Z,25.9
2017-10-13T15:34:44.355Z,25.91
2017-10-13T15:35:44.059Z,25.87
2017-10-13T15:36:44.411Z,25.8
2017-10-13T15:37:44.115Z,25.69
2017-10-13T15:38:44.141Z,25.69
2017-10-13T15:39:44.178Z,25.65
2017-10-13T15:40:44.210Z,25.53
2017-10-13T15:41:44.283Z,25.46
2017-10-13T15:42:44.257Z,25.36
2017-10-13T15:43:44.298Z,25.25
2017-10-13T15:44:44.316Z,25.17
2017-10-13T15:45:44.342Z,25.16
2017-10-13T15:46:44.365Z,24.98
2017-10-13T15:47:44.394Z,24.95
2017-10-13T15:48:44.426Z,24.88
2017-10-13T15:49:44.461Z,24.78
2017-10-13T15:50:44.480Z,24.74
2017-10-13T15:51:44.555Z,24.65
2017-10-13T15:52:44.541Z,24.54
2017-10-13T15:53:44.560Z,24.5
2017-10-13T15:54:44.604Z,24.43
2017-10-13T15:55:44.950Z,24.47
2017-10-13T15:56:44.688Z,24.3
2017-10-13T15:57:44.670Z,24.17
2017-10-13T15:58:44.707Z,24.14
2017-10-13T15:59:44.722Z,24.03
2017-10-13T16:00:45.099Z,23.92
2017-10-13T16:01:45.113Z,23.93
2017-10-13T16:02:44.809Z,23.78
2017-10-13T16:03:44.825Z,23.8
2017-10-13T16:04:44.855Z,23.78
2017-10-13T16:05:44.886Z,23.74
2017-10-13T16:06:44.915Z,23.62
2017-10-13T16:07:44.934Z,23.54
2017-10-13T16:08:45.287Z,23.5
2017-10-13T16:09:44.987Z,23.5
2017-10-13T16:10:45.017Z,23.36
2017-10-13T16:11:45.039Z,23.21
2017-10-13T16:12:45.066Z,23.2
2017-10-13T16:13:45.092Z,23.06
2017-10-13T16:14:45.123Z,22.98
2017-10-13T16:15:45.149Z,23.02
2017-10-13T16:16:45.171Z,22.83
2017-10-13T16:17:45.202Z,22.83
2017-10-13T16:18:45.249Z,22.87
2017-10-13T16:19:45.255Z,22.8
2017-10-13T16:20:45.279Z,22.65
2017-10-13T16:21:45.305Z,22.59
2017-10-13T16:22:45.331Z,22.57
2017-10-13T16:23:45.354Z,22.48
2017-10-13T16:24:45.383Z,22.29
2017-10-13T16:25:45.407Z,22.23
2017-10-13T16:26:45.435Z,22.18
2017-10-13T16:27:45.467Z,22.2
2017-10-13T16:28:45.806Z,22.11
2017-10-13T16:29:45.519Z,22.06
2017-10-13T16:30:45.966Z,22.11
2017-10-13T16:31:45.614Z,22.08
2017-10-13T16:32:45.592Z,22
2017-10-13T16:33:45.621Z,21.95
2017-10-13T16:34:45.640Z,21.88
2017-10-13T16:35:45.667Z,21.77
2017-10-13T16:36:45.689Z,21.75
2017-10-13T16:37:45.712Z,21.66
2017-10-13T16:38:46.067Z,21.67
2017-10-13T16:39:45.760Z,21.5
2017-10-13T16:40:45.792Z,21.48
2017-10-13T16:41:45.813Z,21.54
2017-10-13T16:42:45.840Z,21.5
2017-10-13T16:43:45.860Z,21.35
2017-10-13T16:44:45.887Z,21.3
2017-10-13T16:45:45.921Z,21.27
2017-10-13T16:46:45.941Z,21.29
2017-10-13T16:47:45.970Z,21.14
2017-10-13T16:48:46.319Z,21.09
2017-10-13T16:49:46.013Z,21.07
2017-10-13T16:50:46.033Z,21.05
2017-10-13T16:51:46.058Z,20.97
2017-10-13T16:52:46.096Z,20.95
2017-10-13T16:53:46.113Z,20.93
2017-10-13T16:54:46.462Z,20.9
2017-10-13T16:55:46.508Z,20.81
2017-10-13T16:56:46.184Z,20.77
2017-10-13T16:57:46.208Z,20.72
2017-10-13T16:58:46.232Z,20.67
2017-10-13T16:59:46.264Z,20.63
2017-10-13T17:00:46.280Z,20.52
2017-10-13T17:01:46.343Z,20.52
2017-10-13T17:02:46.333Z,20.56
2017-10-13T17:03:46.359Z,20.55
2017-10-13T17:04:46.384Z,20.55
2017-10-13T17:05:46.409Z,20.43
2017-10-13T17:06:46.434Z,20.37
2017-10-13T17:07:46.452Z,20.37
2017-10-13T17:08:46.473Z,20.29
2017-10-13T17:09:46.556Z,20.34
2017-10-13T17:10:46.565Z,20.22
2017-10-13T17:11:46.551Z,20.18
2017-10-13T17:12:46.571Z,20.06
2017-10-13T17:13:46.595Z,20.14
2017-10-13T17:14:46.621Z,20.14
2017-10-13T17:15:46.656Z,20.14
2017-10-13T17:16:46.668Z,20.19
2017-10-13T17:17:47.016Z,20.16
2017-10-13T17:18:46.710Z,20.03
2017-10-13T17:19:46.737Z,20.07
2017-10-13T17:20:46.763Z,20.07
2017-10-13T17:21:46.786Z,20.07
2017-10-13T17:22:46.818Z,20.03
2017-10-13T17:23:46.834Z,20.02
2017-10-13T17:24:46.866Z,19.96
2017-10-13T17:25:46.890Z,19.88
2017-10-13T17:26:46.912Z,19.95
2017-10-13T17:27:46.935Z,19.91
2017-10-13T17:28:47.010Z,19.94
2017-10-13T17:29:46.980Z,19.86
2017-10-13T17:30:47.003Z,19.91
2017-10-13T17:31:47.027Z,19.88
2017-10-13T17:32:47.059Z,19.89
2017-10-13T17:33:47.085Z,19.91
2017-10-13T17:34:47.102Z,19.88
2017-10-13T17:35:47.129Z,19.74
2017-10-13T17:36:47.475Z,19.64
2017-10-13T17:37:47.499Z,19.54
2017-10-13T17:38:47.199Z,19.44
2017-10-13T17:39:47.224Z,19.3
2017-10-13T17:40:47.268Z,19.26
2017-10-13T17:41:47.269Z,19.21
2017-10-13T17:42:47.295Z,19.16
2017-10-13T17:43:47.326Z,19.16
2017-10-13T17:44:47.343Z,19.12
2017-10-13T17:45:47.362Z,19.09
2017-10-13T17:46:47.389Z,19
2017-10-13T17:47:47.411Z,18.95
2017-10-13T17:48:47.436Z,18.98
2017-10-13T17:49:47.465Z,18.96
2017-10-13T17:50:47.484Z,18.96
2017-10-13T17:51:47.507Z,18.99
2017-10-13T17:52:47.527Z,18.92
2017-10-13T17:53:47.558Z,18.93
2017-10-13T17:54:47.578Z,18.93
2017-10-13T17:55:47.603Z,18.86
2017-10-13T17:56:47.627Z,18.8
2017-10-13T17:57:47.650Z,18.96
2017-10-13T17:58:47.672Z,18.95
2017-10-13T17:59:47.697Z,18.81
2017-10-13T18:00:47.725Z,18.92
2017-10-13T18:01:47.743Z,18.83
2017-10-13T18:02:47.769Z,18.74
2017-10-13T18:03:47.798Z,18.68
2017-10-13T18:04:47.824Z,18.75
2017-10-13T18:05:47.849Z,18.71
2017-10-13T18:06:47.863Z,18.71
2017-10-13T18:07:47.883Z,18.63
2017-10-13T18:08:47.907Z,18.68
2017-10-13T18:09:47.934Z,18.59
2017-10-13T18:10:47.959Z,18.66
2017-10-13T18:11:47.983Z,18.63
2017-10-13T18:12:48.226Z,18.65
2017-10-13T18:13:48.028Z,18.59
2017-10-13T18:14:48.056Z,18.47
2017-10-13T18:15:48.402Z,18.44
2017-10-13T18:16:48.097Z,18.49
2017-10-13T18:17:48.119Z,18.45
2017-10-13T18:18:48.201Z,18.53
2017-10-13T18:19:48.172Z,18.5
2017-10-13T18:20:48.191Z,18.41
2017-10-13T18:21:48.216Z,18.5
2017-10-13T18:22:48.236Z,18.53
2017-10-13T18:23:48.266Z,18.43
2017-10-13T18:24:48.291Z,18.44
2017-10-13T18:25:48.308Z,18.55
2017-10-13T18:26:48.332Z,18.44
2017-10-13T18:27:48.361Z,18.35
2017-10-13T18:28:49.237Z,18.4
2017-10-13T18:29:48.725Z,18.43
2017-10-13T18:30:48.429Z,18.31
2017-10-13T18:31:48.446Z,18.34
2017-10-13T18:32:48.469Z,18.26
2017-10-13T18:33:48.493Z,18.26
2017-10-13T18:34:48.522Z,18.2
2017-10-13T18:35:48.539Z,18.28
2017-10-13T18:36:48.571Z,18.33
2017-10-13T18:37:48.640Z,18.44
2017-10-13T18:38:49.089Z,18.35
2017-10-13T18:39:48.633Z,18.56
2017-10-13T18:40:48.660Z,18.53
2017-10-13T18:41:48.683Z,18.38
2017-10-13T18:42:48.712Z,18.26
2017-10-13T18:43:48.748Z,18.2
2017-10-13T18:44:48.750Z,18.28
2017-10-13T18:45:48.771Z,18.34
2017-10-13T18:46:48.796Z,18.23
2017-10-13T18:47:48.816Z,18.29
2017-10-13T18:48:48.843Z,18.23
2017-10-13T18:49:48.864Z,18.22
2017-10-13T18:50:48.885Z,18.26
2017-10-13T18:51:48.910Z,18.22
2017-10-13T18:52:48.942Z,18.34
2017-10-13T18:53:48.954Z,18.37
2017-10-13T18:54:48.981Z,18.35
2017-10-13T18:55:49.001Z,18.45
2017-10-13T18:56:49.079Z,18.41
2017-10-13T18:57:49.048Z,18.43
2017-10-13T18:58:49.399Z,18.43
2017-10-13T18:59:49.088Z,18.45
2017-10-13T19:00:49.119Z,18.2
2017-10-13T19:01:49.133Z,18.25
2017-10-13T19:02:49.159Z,18.25
2017-10-13T19:03:49.188Z,18.16
2017-10-13T19:04:49.539Z,18.13
2017-10-13T19:05:49.229Z,18.01
2017-10-13T19:06:49.255Z,18
2017-10-13T19:07:49.631Z,17.95
2017-10-13T19:08:49.299Z,18
2017-10-13T19:09:49.318Z,17.86
2017-10-13T19:10:49.341Z,17.83
2017-10-13T19:11:49.362Z,17.86
2017-10-13T19:12:49.388Z,17.82
2017-10-13T19:13:49.427Z,17.9
2017-10-13T19:14:49.437Z,17.87
2017-10-13T19:15:49.456Z,17.87
2017-10-13T19:16:49.481Z,17.87
2017-10-13T19:17:49.512Z,18
2017-10-13T19:18:49.846Z,17.95
2017-10-13T19:19:49.875Z,17.97
2017-10-13T19:20:49.568Z,18.04
2017-10-13T19:21:49.594Z,18.03
2017-10-13T19:22:49.623Z,18.07
2017-10-13T19:23:49.638Z,18.01
2017-10-13T19:24:49.992Z,17.95
2017-10-13T19:25:49.685Z,17.95
2017-10-13T19:26:49.706Z,17.8
2017-10-13T19:27:49.728Z,17.86
2017-10-13T19:28:49.798Z,17.74
2017-10-13T19:29:49.771Z,17.64
2017-10-13T19:30:49.797Z,17.68
2017-10-13T19:31:49.823Z,17.7
2017-10-13T19:32:49.841Z,17.68
2017-10-13T19:33:49.882Z,17.71
2017-10-13T19:34:49.884Z,17.64
2017-10-13T19:35:49.908Z,17.67
2017-10-13T19:36:49.945Z,17.68
2017-10-13T19:37:49.985Z,17.7
2017-10-13T19:38:49.981Z,17.64
2017-10-13T19:39:50.003Z,17.65
2017-10-13T19:40:50.022Z,17.46
2017-10-13T19:41:50.284Z,17.51
2017-10-13T19:42:50.097Z,17.56
2017-10-13T19:43:50.092Z,17.48
2017-10-13T19:44:50.113Z,17.51
2017-10-13T19:45:50.132Z,17.54
2017-10-13T19:46:50.241Z,17.52
2017-10-13T19:47:50.559Z,17.56
2017-10-13T19:48:50.249Z,17.45
2017-10-13T19:49:50.225Z,17.42
2017-10-13T19:50:50.245Z,17.39
2017-10-13T19:51:50.295Z,17.45
2017-10-13T19:52:50.301Z,17.42
2017-10-13T19:53:50.331Z,17.38
2017-10-13T19:54:50.350Z,17.3
2017-10-13T19:55:50.362Z,17.36
2017-10-13T19:56:50.435Z,17.33
2017-10-13T19:57:50.405Z,17.42
2017-10-13T19:58:50.432Z,17.33
2017-10-13T19:59:50.449Z,17.34
2017-10-13T20:00:50.486Z,17.39
2017-10-13T20:01:50.514Z,17.3
2017-10-13T20:02:50.541Z,17.31
2017-10-13T20:03:50.552Z,17.29
2017-10-13T20:04:50.573Z,17.27
2017-10-13T20:05:50.595Z,17.31
2017-10-13T20:06:50.615Z,17.14
2017-10-13T20:07:50.979Z,17.2
2017-10-13T20:08:50.676Z,17.26
2017-10-13T20:09:50.676Z,17.29
2017-10-13T20:10:50.699Z,17.23
2017-10-13T20:11:50.782Z,17.24
2017-10-13T20:12:50.761Z,17.3
2017-10-13T20:13:50.772Z,17.16
2017-10-13T20:14:50.789Z,17.3
2017-10-13T20:15:50.829Z,17.23
2017-10-13T20:16:50.843Z,17.33
2017-10-13T20:17:50.853Z,17.22
2017-10-13T20:18:50.892Z,17.19
2017-10-13T20:19:50.903Z,17.02
2017-10-13T20:20:50.923Z,17.01
2017-10-13T20:21:51.266Z,17.14
2017-10-13T20:22:50.966Z,17.14
2017-10-13T20:23:51.001Z,17.12
2017-10-13T20:24:51.017Z,17.05
2017-10-13T20:25:51.059Z,16.99
2017-10-13T20:26:51.106Z,17.02
2017-10-13T20:27:51.081Z,17.09
2017-10-13T20:28:51.105Z,17.05
2017-10-13T20:29:51.149Z,17.15
2017-10-13T20:30:51.508Z,17.01
2017-10-13T20:31:51.174Z,17.08
2017-10-13T20:32:51.190Z,16.91
2017-10-13T20:33:51.213Z,16.89
2017-10-13T20:34:51.571Z,16.87
2017-10-13T20:35:51.263Z,16.93
2017-10-13T20:36:51.300Z,16.96
2017-10-13T20:37:51.311Z,16.93
2017-10-13T20:38:51.334Z,17.06
2017-10-13T20:39:51.341Z,17.02
2017-10-13T20:40:51.371Z,17.08
2017-10-13T20:41:51.393Z,17.12
2017-10-13T20:42:51.760Z,17.04
2017-10-13T20:43:51.446Z,17.02
2017-10-13T20:44:51.454Z,16.96
2017-10-13T20:45:51.476Z,16.97
2017-10-13T20:46:51.505Z,17.08
2017-10-13T20:47:51.526Z,17.02
2017-10-13T20:48:51.560Z,17.06
2017-10-13T20:49:51.564Z,17.08
2017-10-13T20:50:51.587Z,17.09
2017-10-13T20:51:51.626Z,17.15
2017-10-13T20:52:51.637Z,17.22
2017-10-13T20:53:51.983Z,17.06
2017-10-13T20:54:51.702Z,17.05
2017-10-13T20:55:52.029Z,17.08
2017-10-13T20:56:51.726Z,17.05
2017-10-13T20:57:51.769Z,17.02
2017-10-13T20:58:52.175Z,16.91
2017-10-13T20:59:51.804Z,17.11
2017-10-13T21:00:52.148Z,17.05
2017-10-13T21:01:51.832Z,17.04
2017-10-13T21:02:52.194Z,17.14
2017-10-13T21:03:51.888Z,17.16
2017-10-13T21:04:51.900Z,17.27
2017-10-13T21:05:51.923Z,17.08
2017-10-13T21:06:52.269Z,17.14
2017-10-13T21:07:51.970Z,17.16
2017-10-13T21:08:52.320Z,17.04
2017-10-13T21:09:52.012Z,16.93
2017-10-13T21:10:52.039Z,16.93
2017-10-13T21:11:52.060Z,16.87
2017-10-13T21:12:52.090Z,16.87
2017-10-13T21:13:52.446Z,16.89
2017-10-13T21:14:52.143Z,16.78
2017-10-13T21:15:52.155Z,16.76
2017-10-13T21:16:52.533Z,16.76
2017-10-13T21:17:52.238Z,16.83
2017-10-13T21:18:52.218Z,16.75
2017-10-13T21:19:52.243Z,16.78
2017-10-13T21:20:52.265Z,16.78
2017-10-13T21:21:52.287Z,16.72
2017-10-13T21:22:52.304Z,16.66
2017-10-13T21:23:52.326Z,16.61
2017-10-13T21:24:52.349Z,16.61
2017-10-13T21:25:52.367Z,16.58
2017-10-13T21:26:52.397Z,16.64
2017-10-13T21:27:52.416Z,16.72
2017-10-13T21:28:52.780Z,16.71
2017-10-13T21:29:52.458Z,16.79
2017-10-13T21:30:52.484Z,16.78
2017-10-13T21:31:52.509Z,16.72
2017-10-13T21:32:52.578Z,16.74
2017-10-13T21:33:52.549Z,16.64
2017-10-13T21:34:52.571Z,16.64
2017-10-13T21:35:52.590Z,16.71
2017-10-13T21:36:52.613Z,16.68
2017-10-13T21:37:52.637Z,16.6
2017-10-13T21:38:52.660Z,16.61
2017-10-13T21:39:52.677Z,16.57
2017-10-13T21:40:52.704Z,16.42
2017-10-13T21:41:52.745Z,16.23
2017-10-13T21:42:52.742Z,16.08
2017-10-13T21:43:52.770Z,16.24
2017-10-13T21:44:52.790Z,16.28
2017-10-13T21:45:52.811Z,16.31
2017-10-13T21:46:53.032Z,16.39
2017-10-13T21:47:52.852Z,16.39
2017-10-13T21:48:52.881Z,16.33
2017-10-13T21:49:52.901Z,16.32
2017-10-13T21:50:52.920Z,16.39
2017-10-13T21:51:52.989Z,16.41
2017-10-13T21:52:52.960Z,16.42
2017-10-13T21:53:52.981Z,16.41
2017-10-13T21:54:53.009Z,16.38
2017-10-13T21:55:53.027Z,16.39
2017-10-13T21:56:53.373Z,16.39
2017-10-13T21:57:53.076Z,16.35
2017-10-13T21:58:53.095Z,16.36
2017-10-13T21:59:53.117Z,16.35
2017-10-13T22:00:53.461Z,16.36
2017-10-13T22:01:53.159Z,16.41
2017-10-13T22:02:53.179Z,16.28
2017-10-13T22:03:53.208Z,16.33
2017-10-13T22:04:53.252Z,16.39
2017-10-13T22:05:53.242Z,16.31
2017-10-13T22:06:53.639Z,16.32
2017-10-13T22:07:53.289Z,16.17
2017-10-13T22:08:53.313Z,16.29
2017-10-13T22:09:53.334Z,16.32
2017-10-13T22:10:53.359Z,16.24
2017-10-13T22:11:53.376Z,16.2
2017-10-13T22:12:53.400Z,16.33
2017-10-13T22:13:53.421Z,16.33
2017-10-13T22:14:53.440Z,16.29
2017-10-13T22:15:53.461Z,16.2
2017-10-13T22:16:53.482Z,16.08
2017-10-13T22:17:53.509Z,16.08
2017-10-13T22:18:53.524Z,16.24
2017-10-13T22:19:53.546Z,16.17
2017-10-13T22:20:53.568Z,16.2
2017-10-13T22:21:53.593Z,16.31
2017-10-13T22:22:53.610Z,16.29
2017-10-13T22:23:53.636Z,16.39
2017-10-13T22:24:53.655Z,16.26
2017-10-13T22:25:53.683Z,16.21
2017-10-13T22:26:53.711Z,16.31
2017-10-13T22:27:53.730Z,16.33
2017-10-13T22:28:54.081Z,16.29
2017-10-13T22:29:53.762Z,16.28
2017-10-13T22:30:53.787Z,16.24
2017-10-13T22:31:53.807Z,16.21
2017-10-13T22:32:53.851Z,16.08
2017-10-13T22:33:53.857Z,16.09
2017-10-13T22:34:53.888Z,16.09
2017-10-13T22:35:53.891Z,16.04
2017-10-13T22:36:53.928Z,16.1
2017-10-13T22:37:53.939Z,16.04
2017-10-13T22:38:54.011Z,16.02
2017-10-13T22:39:54.304Z,15.98
2017-10-13T22:40:54.003Z,16.01
2017-10-13T22:41:54.021Z,16
2017-10-13T22:42:54.365Z,15.94
2017-10-13T22:43:54.073Z,16.01
2017-10-13T22:44:54.091Z,15.8
2017-10-13T22:45:54.112Z,15.72
2017-10-13T22:46:54.135Z,15.8
2017-10-13T22:47:54.156Z,15.86
2017-10-13T22:48:54.176Z,15.84
2017-10-13T22:49:54.213Z,15.88
2017-10-13T22:50:54.234Z,15.86
2017-10-13T22:51:54.238Z,15.9
2017-10-13T22:52:54.267Z,15.91
2017-10-13T22:53:54.339Z,15.97
2017-10-13T22:54:54.302Z,15.98
2017-10-13T22:55:54.329Z,15.94
2017-10-13T22:56:54.347Z,15.98
2017-10-13T22:57:54.375Z,15.92
2017-10-13T22:58:54.393Z,15.86
2017-10-13T22:59:54.734Z,15.82
2017-10-13T23:00:54.434Z,15.82
2017-10-13T23:01:54.450Z,15.9
2017-10-13T23:02:54.481Z,15.9
2017-10-13T23:03:54.497Z,15.65
2017-10-13T23:04:54.513Z,15.61
2017-10-13T23:05:54.549Z,15.73
2017-10-13T23:06:54.561Z,15.52
2017-10-13T23:07:54.581Z,15.55
2017-10-13T23:08:54.651Z,15.58
2017-10-13T23:09:54.623Z,15.57
2017-10-13T23:10:54.639Z,15.57
2017-10-13T23:11:55.004Z,15.62
2017-10-13T23:12:55.010Z,15.54
2017-10-13T23:13:54.704Z,15.44
2017-10-13T23:14:55.054Z,15.52
2017-10-13T23:15:54.751Z,15.47
2017-10-13T23:16:54.774Z,15.54
2017-10-13T23:17:54.790Z,15.57
2017-10-13T23:18:54.812Z,15.52
2017-10-13T23:19:54.832Z,15.57
2017-10-13T23:20:54.852Z,15.43
2017-10-13T23:21:54.880Z,15.49
2017-10-13T23:22:54.898Z,15.43
2017-10-13T23:23:54.974Z,15.37
2017-10-13T23:24:54.939Z,15.22
2017-10-13T23:25:54.960Z,15.22
2017-10-13T23:26:54.984Z,15.33
2017-10-13T23:27:55.010Z,15.36
2017-10-13T23:28:55.041Z,15.33
2017-10-13T23:29:55.043Z,15.37
2017-10-13T23:30:55.402Z,15.22
2017-10-13T23:31:55.083Z,15.19
2017-10-13T23:32:55.105Z,15.25
2017-10-13T23:33:55.129Z,15.25
2017-10-13T23:34:55.160Z,15.19
2017-10-13T23:35:55.165Z,15.19
2017-10-13T23:36:55.196Z,15.14
2017-10-13T23:37:55.212Z,15.19
2017-10-13T23:38:55.231Z,15.22
2017-10-13T23:39:55.577Z,15.21
2017-10-13T23:40:55.322Z,15.31
2017-10-13T23:41:55.292Z,15.31
2017-10-13T23:42:55.316Z,15.33
2017-10-13T23:43:55.341Z,15.22
2017-10-13T23:44:55.364Z,15.29
2017-10-13T23:45:55.382Z,15.29
2017-10-13T23:46:55.399Z,15.21
2017-10-13T23:47:55.424Z,15.18
2017-10-13T23:48:55.440Z,15.27
2017-10-13T23:49:55.467Z,15.31
2017-10-13T23:50:55.481Z,15.35
2017-10-13T23:51:55.830Z,15.4
2017-10-13T23:52:55.531Z,15.39
2017-10-13T23:53:55.547Z,15.37
2017-10-13T23:54:55.563Z,15.29
2017-10-13T23:55:55.584Z,15.29
2017-10-13T23:56:55.608Z,15.36
2017-10-13T23:57:55.625Z,15.43
2017-10-13T23:58:55.723Z,15.39
2017-10-13T23:59:55.668Z,15.39
